createdAt,value
2019-04-16T00:01:01.492Z,20.50
2019-04-16T00:03:30.797Z,21.63
2019-04-16T00:06:01.753Z,21.23
2019-04-16T00:08:35.400Z,24.00
2019-04-16T00:11:06.389Z,19.10
2019-04-16T00:13:37.332Z,23.97
2019-04-16T00:16:06.663Z,20.20
2019-04-16T00:18:36.036Z,18.70
2019-04-16T00:21:09.889Z,21.80
2019-04-16T00:23:51.882Z,23.33
2019-04-16T00:26:21.281Z,24.90
2019-04-16T00:28:50.588Z,19.93
2019-04-16T00:31:19.932Z,19.77
2019-04-16T00:33:49.364Z,19.27
2019-04-16T00:36:18.807Z,19.87
2019-04-16T00:38:48.171Z,22.13
2019-04-16T00:41:17.494Z,20.87
2019-04-16T00:43:46.801Z,18.70
2019-04-16T00:46:17.088Z,20.70
2019-04-16T00:48:46.401Z,18.60
2019-04-16T00:51:15.790Z,19.67
2019-04-16T00:53:45.104Z,17.77
2019-04-16T00:56:16.162Z,20.93
2019-04-16T00:58:45.473Z,19.07
2019-04-16T01:01:14.832Z,18.17
2019-04-16T01:03:44.239Z,17.63
2019-04-16T01:06:13.564Z,18.27
2019-04-16T01:08:53.897Z,18.53
2019-04-16T01:11:13.895Z,18.23
2019-04-16T01:13:43.451Z,18.50
2019-04-16T01:16:12.840Z,19.33
2019-04-16T01:18:42.156Z,17.80
2019-04-16T01:21:13.903Z,18.23
2019-04-16T01:23:42.634Z,17.63
2019-04-16T01:26:11.947Z,15.13
2019-04-16T01:28:42.915Z,18.03
2019-04-16T01:31:13.873Z,18.53
2019-04-16T01:33:59.932Z,18.20
2019-04-16T01:36:30.904Z,17.97
2019-04-16T01:39:14.967Z,18.17
2019-04-16T01:41:34.491Z,18.03
2019-04-16T01:44:04.117Z,16.77
2019-04-16T01:46:33.609Z,15.63
2019-04-16T01:49:02.946Z,17.77
2019-04-16T01:51:32.256Z,15.63
2019-04-16T01:54:01.564Z,16.30
2019-04-16T01:56:31.061Z,15.17
2019-04-16T01:59:04.593Z,18.63
2019-04-16T02:01:31.383Z,16.40
2019-04-16T02:04:00.965Z,18.40
2019-04-16T02:06:30.276Z,14.87
2019-04-16T02:09:02.785Z,23.30
2019-04-16T02:11:32.279Z,18.60
2019-04-16T02:14:01.623Z,14.80
2019-04-16T02:16:30.952Z,15.20
2019-04-16T02:19:01.345Z,18.90
2019-04-16T02:21:31.319Z,20.43
2019-04-16T02:24:00.630Z,15.53
2019-04-16T02:26:30.210Z,17.07
2019-04-16T02:28:59.601Z,18.10
2019-04-16T02:31:29.983Z,18.60
2019-04-16T02:33:59.384Z,18.00
2019-04-16T02:36:28.805Z,15.43
2019-04-16T02:38:58.099Z,16.00
2019-04-16T02:41:27.430Z,14.80
2019-04-16T02:43:56.740Z,15.87
2019-04-16T02:46:30.874Z,19.67
2019-04-16T02:48:57.089Z,15.90
2019-04-16T02:51:31.020Z,18.03
2019-04-16T02:54:04.782Z,15.37
2019-04-16T02:56:35.725Z,13.83
2019-04-16T02:59:15.803Z,15.53
2019-04-16T03:01:49.363Z,15.67
2019-04-16T03:04:26.675Z,16.67
2019-04-16T03:06:53.037Z,16.37
2019-04-16T03:09:22.344Z,18.53
2019-04-16T03:11:51.688Z,18.23
2019-04-16T03:14:21.078Z,21.47
2019-04-16T03:17:10.606Z,17.70
2019-04-16T03:19:51.032Z,16.03
2019-04-16T03:22:18.373Z,14.80
2019-04-16T03:24:47.680Z,18.53
2019-04-16T03:27:21.906Z,17.80
2019-04-16T03:29:48.003Z,14.40
2019-04-16T03:32:17.328Z,16.03
2019-04-16T03:34:50.423Z,17.80
2019-04-16T03:37:18.605Z,15.80
2019-04-16T03:39:47.903Z,18.33
2019-04-16T03:42:17.224Z,17.77
2019-04-16T03:44:46.532Z,16.10
2019-04-16T03:47:19.133Z,14.83
2019-04-16T03:49:46.840Z,13.87
2019-04-16T03:52:16.161Z,16.17
2019-04-16T03:54:45.463Z,14.87
2019-04-16T03:57:14.767Z,15.47
2019-04-16T03:59:44.079Z,14.10
2019-04-16T04:02:15.352Z,16.33
2019-04-16T04:04:44.391Z,15.10
2019-04-16T04:07:13.795Z,15.07
2019-04-16T04:09:43.176Z,12.73
2019-04-16T04:12:14.142Z,13.07
2019-04-16T04:14:44.029Z,15.87
2019-04-16T04:17:13.657Z,16.77
2019-04-16T04:19:43.508Z,15.27
2019-04-16T04:22:13.968Z,16.47
2019-04-16T04:24:43.279Z,14.17
2019-04-16T04:27:15.702Z,19.33
2019-04-16T04:29:46.169Z,16.87
2019-04-16T04:32:14.595Z,14.27
2019-04-16T04:34:45.499Z,15.27
2019-04-16T04:37:14.914Z,13.97
2019-04-16T04:39:44.834Z,15.27
2019-04-16T04:42:14.223Z,15.07
2019-04-16T04:44:46.781Z,16.83
2019-04-16T04:47:15.506Z,16.90
2019-04-16T04:49:45.624Z,14.80
2019-04-16T04:52:15.259Z,16.60
2019-04-16T04:54:44.720Z,17.10
2019-04-16T04:57:14.023Z,13.97
2019-04-16T04:59:43.349Z,17.43
2019-04-16T05:02:14.293Z,13.87
2019-04-16T05:04:52.490Z,15.70
2019-04-16T05:07:22.610Z,15.10
2019-04-16T05:09:51.895Z,15.57
2019-04-16T05:12:22.172Z,15.83
2019-04-16T05:14:57.586Z,14.03
2019-04-16T05:17:25.471Z,17.07
2019-04-16T05:19:54.824Z,16.93
2019-04-16T05:22:25.045Z,16.43
2019-04-16T05:24:54.359Z,15.70
2019-04-16T05:27:23.727Z,15.07
2019-04-16T05:29:53.033Z,14.00
2019-04-16T05:32:25.571Z,18.67
2019-04-16T05:34:53.339Z,14.10
2019-04-16T05:37:22.647Z,13.77
2019-04-16T05:39:51.955Z,14.27
2019-04-16T05:42:22.399Z,12.87
2019-04-16T05:44:52.340Z,15.30
2019-04-16T05:47:21.644Z,11.30
2019-04-16T05:49:50.956Z,14.90
2019-04-16T05:52:20.264Z,14.97
2019-04-16T05:54:53.999Z,13.17
2019-04-16T05:57:30.908Z,12.53
2019-04-16T06:00:03.248Z,11.67
2019-04-16T06:02:42.396Z,12.33
2019-04-16T06:05:12.215Z,17.97
2019-04-16T06:07:41.515Z,12.43
2019-04-16T06:10:17.019Z,17.90
2019-04-16T06:13:02.040Z,14.97
2019-04-16T06:15:36.036Z,13.87
2019-04-16T06:18:22.352Z,16.27
2019-04-16T06:20:53.776Z,14.37
2019-04-16T06:23:32.650Z,14.33
2019-04-16T06:26:18.796Z,13.77
2019-04-16T06:28:56.409Z,12.37
2019-04-16T06:31:31.263Z,15.50
2019-04-16T06:34:08.007Z,13.50
2019-04-16T06:36:38.960Z,13.83
2019-04-16T06:39:09.908Z,13.17
2019-04-16T06:41:57.103Z,11.97
2019-04-16T06:44:29.804Z,13.30
2019-04-16T06:46:59.323Z,14.70
2019-04-16T06:49:34.556Z,14.63
2019-04-16T06:52:18.141Z,13.10
2019-04-16T06:55:00.534Z,15.90
2019-04-16T06:57:48.837Z,14.60
2019-04-16T07:00:35.294Z,14.23
2019-04-16T07:03:25.848Z,15.97
2019-04-16T07:06:03.951Z,14.10
2019-04-16T07:08:51.618Z,12.93
2019-04-16T07:11:22.734Z,14.43
2019-04-16T07:13:52.064Z,14.13
2019-04-16T07:16:21.379Z,15.83
2019-04-16T07:18:50.688Z,14.03
2019-04-16T07:21:20.004Z,14.53
2019-04-16T07:23:49.404Z,13.63
2019-04-16T07:26:18.960Z,15.93
2019-04-16T07:28:59.075Z,14.83
2019-04-16T07:31:45.765Z,14.17
2019-04-16T07:34:16.823Z,14.63
2019-04-16T07:37:00.241Z,12.63
2019-04-16T07:39:46.502Z,14.77
2019-04-16T07:42:32.496Z,14.53
2019-04-16T07:45:12.593Z,17.67
2019-04-16T07:47:42.759Z,13.83
2019-04-16T07:50:16.396Z,16.10
2019-04-16T07:52:47.348Z,12.43
2019-04-16T07:55:18.305Z,18.80
2019-04-16T07:57:47.633Z,13.70
2019-04-16T08:00:17.192Z,15.00
2019-04-16T08:02:46.499Z,17.07
2019-04-16T08:05:15.819Z,16.47
2019-04-16T08:07:45.131Z,15.23
2019-04-16T08:10:26.809Z,16.67
2019-04-16T08:13:00.575Z,12.60
2019-04-16T08:15:28.775Z,14.67
2019-04-16T08:17:58.087Z,12.55
2019-04-16T08:20:27.407Z,16.23
2019-04-16T08:22:58.362Z,15.75
2019-04-16T08:25:33.669Z,13.80
2019-04-16T08:28:00.471Z,13.13
2019-04-16T08:30:34.623Z,12.78
2019-04-16T08:33:01.093Z,13.90
2019-04-16T08:35:30.408Z,15.83
2019-04-16T08:37:59.723Z,11.63
2019-04-16T08:40:30.018Z,14.45
2019-04-16T08:42:59.336Z,16.40
2019-04-16T08:45:28.659Z,13.45
2019-04-16T08:47:57.977Z,12.73
2019-04-16T08:50:27.300Z,14.60
2019-04-16T08:52:56.686Z,16.02
2019-04-16T08:55:26.003Z,16.30
2019-04-16T08:57:55.328Z,15.80
2019-04-16T09:00:25.628Z,14.95
2019-04-16T09:02:57.627Z,14.10
2019-04-16T09:05:26.013Z,15.18
2019-04-16T09:08:10.958Z,14.05
2019-04-16T09:10:30.929Z,16.48
2019-04-16T09:13:05.020Z,19.20
2019-04-16T09:15:38.408Z,14.35
2019-04-16T09:18:27.685Z,16.93
2019-04-16T09:20:57.004Z,14.28
2019-04-16T09:23:27.012Z,17.77
2019-04-16T09:26:12.922Z,21.62
2019-04-16T09:28:46.618Z,15.18
2019-04-16T09:31:23.792Z,15.88
2019-04-16T09:33:57.292Z,13.62
2019-04-16T09:36:43.493Z,14.75
2019-04-16T09:39:26.579Z,14.00
2019-04-16T09:41:55.907Z,15.75
2019-04-16T09:44:29.804Z,17.57
2019-04-16T09:46:59.464Z,21.05
2019-04-16T09:49:27.328Z,13.83
2019-04-16T09:51:57.576Z,20.00
2019-04-16T09:54:26.905Z,18.30
2019-04-16T09:56:56.805Z,17.00
2019-04-16T09:59:28.882Z,15.70
2019-04-16T10:01:59.836Z,18.42
2019-04-16T10:04:29.320Z,19.10
2019-04-16T10:06:58.642Z,16.70
2019-04-16T10:09:28.034Z,15.00
2019-04-16T10:11:57.608Z,18.52
2019-04-16T10:14:27.054Z,17.27
2019-04-16T10:16:56.369Z,16.27
2019-04-16T10:19:25.891Z,17.57
2019-04-16T10:21:55.399Z,18.87
2019-04-16T10:24:42.856Z,16.70
2019-04-16T10:27:13.819Z,19.50
2019-04-16T10:29:43.135Z,19.02
2019-04-16T10:32:12.801Z,20.27
2019-04-16T10:34:42.235Z,19.60
2019-04-16T10:37:11.597Z,19.67
2019-04-16T10:39:42.579Z,16.87
2019-04-16T10:42:29.731Z,21.53
2019-04-16T10:45:00.759Z,18.70
2019-04-16T10:47:41.689Z,20.72
2019-04-16T10:50:12.724Z,20.70
2019-04-16T10:52:54.076Z,19.20
2019-04-16T10:55:27.747Z,20.85
2019-04-16T10:58:15.192Z,20.77
2019-04-16T11:00:46.136Z,17.98
2019-04-16T11:03:23.107Z,19.95
2019-04-16T11:08:45.788Z,18.20
2019-04-16T11:11:15.195Z,24.55
2019-04-16T11:13:58.936Z,17.87
2019-04-16T11:16:17.432Z,19.95
2019-04-16T11:18:46.887Z,22.35
2019-04-16T11:21:16.573Z,18.73
2019-04-16T11:23:46.019Z,19.87
2019-04-16T11:26:16.171Z,21.62
2019-04-16T11:28:45.514Z,21.12
2019-04-16T11:31:16.519Z,19.35
2019-04-16T11:33:46.814Z,18.85
2019-04-16T11:36:20.224Z,22.37
2019-04-16T11:38:47.149Z,21.87
2019-04-16T11:41:16.514Z,22.52
2019-04-16T11:43:45.922Z,20.15
2019-04-16T11:46:15.409Z,21.05
2019-04-16T11:48:44.846Z,21.90
2019-04-16T11:51:14.485Z,25.10
2019-04-16T11:53:43.923Z,20.72
2019-04-16T11:56:13.288Z,22.80
2019-04-16T11:58:45.277Z,19.20
2019-04-16T12:01:17.157Z,24.63
2019-04-16T12:03:56.133Z,22.60
2019-04-16T12:06:29.474Z,22.13
2019-04-16T12:09:16.723Z,21.48
2019-04-16T12:12:04.176Z,21.17
2019-04-16T12:14:42.133Z,19.62
2019-04-16T12:17:22.980Z,27.93
2019-04-16T12:20:12.036Z,22.65
2019-04-16T12:23:01.107Z,26.87
2019-04-16T12:25:33.255Z,23.42
2019-04-16T12:28:19.297Z,20.30
2019-04-16T12:31:05.438Z,22.07
2019-04-16T12:33:46.434Z,22.13
2019-04-16T12:36:23.260Z,20.25
2019-04-16T12:39:18.364Z,21.25
2019-04-16T12:42:02.783Z,25.35
2019-04-16T12:44:45.173Z,24.43
2019-04-16T12:47:09.513Z,22.98
2019-04-16T12:49:56.704Z,20.88
2019-04-16T12:52:30.663Z,21.50
2019-04-16T12:55:10.065Z,30.95
2019-04-16T12:57:47.896Z,23.25
2019-04-16T13:00:37.445Z,25.10
2019-04-16T13:03:20.572Z,23.35
2019-04-16T13:05:57.233Z,21.48
2019-04-16T13:08:31.095Z,23.92
2019-04-16T13:11:02.642Z,27.87
2019-04-16T13:13:42.648Z,25.65
2019-04-16T13:16:22.857Z,25.48
2019-04-16T13:19:09.060Z,28.23
2019-04-16T13:21:40.011Z,29.50
2019-04-16T13:24:13.998Z,23.38
2019-04-16T13:27:03.490Z,25.32
2019-04-16T13:29:32.836Z,26.30
2019-04-16T13:32:02.172Z,24.12
2019-04-16T13:34:31.499Z,28.05
2019-04-16T13:37:01.093Z,24.07
2019-04-16T13:39:48.564Z,24.60
2019-04-16T13:42:18.950Z,25.75
2019-04-16T13:44:49.990Z,25.43
2019-04-16T13:47:19.297Z,26.15
2019-04-16T13:50:02.608Z,24.27
2019-04-16T13:52:30.196Z,24.57
2019-04-16T13:55:08.403Z,22.70
2019-04-16T13:57:39.179Z,28.85
2019-04-16T14:00:11.390Z,26.20
2019-04-16T14:02:42.410Z,25.32
2019-04-16T14:05:11.938Z,27.17
2019-04-16T14:07:41.304Z,24.63
2019-04-16T14:10:11.069Z,26.07
2019-04-16T14:12:42.673Z,25.55
2019-04-16T14:15:12.712Z,25.43
2019-04-16T14:17:52.537Z,24.67
2019-04-16T14:20:13.936Z,27.48
2019-04-16T14:22:43.687Z,25.62
2019-04-16T14:25:13.072Z,27.42
2019-04-16T14:27:43.363Z,28.80
2019-04-16T14:30:14.467Z,27.02
2019-04-16T14:32:43.783Z,28.60
2019-04-16T14:35:14.887Z,27.98
2019-04-16T14:37:44.204Z,26.35
2019-04-16T14:40:18.544Z,30.45
2019-04-16T14:42:47.861Z,27.50
2019-04-16T14:45:20.524Z,26.15
2019-04-16T14:47:49.842Z,23.73
2019-04-16T14:50:20.041Z,31.48
2019-04-16T14:52:50.204Z,26.42
2019-04-16T14:55:33.235Z,30.70
2019-04-16T14:58:06.859Z,28.67
2019-04-16T15:00:54.456Z,25.90
2019-04-16T15:03:34.148Z,30.15
2019-04-16T15:06:05.373Z,28.65
2019-04-16T15:08:45.247Z,30.88
2019-04-16T15:11:24.964Z,28.65
2019-04-16T15:13:55.937Z,26.68
2019-04-16T15:16:27.875Z,26.87
2019-04-16T15:19:02.085Z,26.00
2019-04-16T15:21:49.450Z,31.25
2019-04-16T15:24:20.397Z,27.13
2019-04-16T15:26:56.793Z,27.87
2019-04-16T15:29:36.486Z,28.52
2019-04-16T15:32:16.524Z,25.88
2019-04-16T15:34:47.492Z,29.60
2019-04-16T15:37:18.463Z,33.63
2019-04-16T15:39:49.413Z,26.12
2019-04-16T15:42:20.372Z,29.42
2019-04-16T15:44:57.616Z,26.85
2019-04-16T15:47:31.887Z,26.30
2019-04-16T15:50:20.933Z,25.20
2019-04-16T15:53:00.811Z,28.27
2019-04-16T15:55:34.692Z,26.80
2019-04-16T16:01:18.673Z,26.12
2019-04-16T16:03:49.694Z,27.48
2019-04-16T16:06:20.725Z,27.00
2019-04-16T16:08:51.697Z,25.02
2019-04-16T16:11:31.623Z,29.32
2019-04-16T16:14:01.634Z,29.55
2019-04-16T16:16:41.490Z,28.00
2019-04-16T16:19:03.229Z,29.32
2019-04-16T16:21:32.555Z,25.95
2019-04-16T16:24:06.667Z,28.62
2019-04-16T16:26:33.878Z,30.43
2019-04-16T16:29:03.266Z,26.60
2019-04-16T16:31:35.569Z,29.72
2019-04-16T16:34:03.590Z,27.00
2019-04-16T16:36:36.475Z,29.37
2019-04-16T16:39:06.749Z,28.90
2019-04-16T16:41:37.692Z,29.55
2019-04-16T16:44:07.052Z,28.47
2019-04-16T16:46:55.728Z,30.62
2019-04-16T16:49:11.734Z,27.32
2019-04-16T16:51:42.699Z,29.72
2019-04-16T16:54:13.665Z,29.55
2019-04-16T16:57:03.543Z,29.55
2019-04-16T16:59:33.719Z,29.40
2019-04-16T17:02:13.639Z,32.97
2019-04-16T17:04:47.562Z,29.90
2019-04-16T17:07:17.747Z,27.10
2019-04-16T17:09:47.383Z,29.47
2019-04-16T17:12:16.709Z,32.83
2019-04-16T17:14:46.011Z,30.33
2019-04-16T17:17:15.521Z,30.10
2019-04-16T17:19:44.904Z,29.83
2019-04-16T17:22:14.636Z,32.17
2019-04-16T17:24:45.232Z,28.87
2019-04-16T17:27:14.606Z,32.17
2019-04-16T17:29:46.656Z,32.47
2019-04-16T17:32:14.934Z,32.70
2019-04-16T17:34:44.240Z,33.00
2019-04-16T17:37:13.584Z,30.00
2019-04-16T17:39:57.287Z,39.30
2019-04-16T17:42:34.254Z,33.20
2019-04-16T17:45:20.380Z,28.47
2019-04-16T17:48:00.410Z,28.53
2019-04-16T17:50:31.372Z,28.43
2019-04-16T17:53:11.080Z,26.67
2019-04-16T17:55:47.868Z,27.07
2019-04-16T17:58:30.755Z,28.50
2019-04-16T18:01:01.761Z,29.70
2019-04-16T18:03:37.596Z,31.13
2019-04-16T18:06:11.714Z,33.33
2019-04-16T18:08:42.703Z,27.53
2019-04-16T18:11:16.580Z,26.20
2019-04-16T18:13:50.213Z,29.83
2019-04-16T18:16:36.223Z,29.57
2019-04-16T18:19:24.852Z,31.10
2019-04-16T18:21:55.913Z,26.73
2019-04-16T18:24:29.818Z,25.90
2019-04-16T18:27:06.644Z,30.43
2019-04-16T18:29:40.632Z,27.23
2019-04-16T18:32:14.466Z,30.90
2019-04-16T18:34:48.382Z,27.23
2019-04-16T18:37:35.601Z,30.53
2019-04-16T18:40:24.327Z,24.53
2019-04-16T18:42:58.263Z,27.43
2019-04-16T18:45:45.643Z,25.03
2019-04-16T18:48:16.719Z,28.70
2019-04-16T18:50:46.111Z,31.90
2019-04-16T18:53:15.453Z,28.33
2019-04-16T18:55:44.770Z,28.83
2019-04-16T18:58:14.087Z,23.97
2019-04-16T19:00:48.621Z,28.70
2019-04-16T19:03:18.002Z,28.70
2019-04-16T19:05:47.315Z,31.27
2019-04-16T19:08:16.708Z,27.20
2019-04-16T19:10:46.159Z,28.67
2019-04-16T19:13:15.498Z,28.83
2019-04-16T19:15:45.790Z,36.47
2019-04-16T19:18:19.721Z,33.43
2019-04-16T19:20:51.509Z,33.33
2019-04-16T19:23:17.167Z,36.20
2019-04-16T19:25:46.487Z,47.17
2019-04-16T19:28:15.817Z,40.93
2019-04-16T19:30:45.131Z,37.13
2019-04-16T19:33:14.457Z,44.23
2019-04-16T19:35:43.764Z,40.80
2019-04-16T19:38:13.099Z,41.80
2019-04-16T19:40:42.403Z,54.30
2019-04-16T19:43:11.891Z,44.70
2019-04-16T19:45:43.759Z,51.10
2019-04-16T19:48:12.226Z,56.10
2019-04-16T19:50:41.554Z,44.93
2019-04-16T19:53:13.800Z,48.47
2019-04-16T19:55:45.607Z,38.07
2019-04-16T19:58:12.939Z,35.43
2019-04-16T20:00:43.251Z,35.43
2019-04-16T20:03:12.559Z,30.53
2019-04-16T20:05:41.959Z,28.63
2019-04-16T20:08:11.273Z,33.30
2019-04-16T20:10:40.602Z,33.90
2019-04-16T20:13:09.920Z,33.10
2019-04-16T20:15:43.152Z,31.73
2019-04-16T20:18:10.285Z,27.10
2019-04-16T20:20:39.843Z,28.73
2019-04-16T20:23:09.154Z,32.23
2019-04-16T20:25:38.541Z,33.70
2019-04-16T20:28:09.425Z,33.97
2019-04-16T20:30:38.871Z,32.13
2019-04-16T20:33:08.185Z,31.27
2019-04-16T20:35:37.518Z,29.07
2019-04-16T20:38:06.832Z,32.23
2019-04-16T20:40:36.161Z,29.43
2019-04-16T20:43:05.475Z,28.73
2019-04-16T20:45:34.868Z,28.80
2019-04-16T20:48:04.262Z,30.10
2019-04-16T20:50:33.579Z,27.30
2019-04-16T20:53:06.503Z,30.87
2019-04-16T20:55:33.927Z,29.63
2019-04-16T20:58:03.239Z,30.23
2019-04-16T21:00:34.231Z,26.50
2019-04-16T21:03:03.858Z,30.97
2019-04-16T21:05:35.723Z,30.67
2019-04-16T21:08:05.537Z,27.03
2019-04-16T21:10:36.299Z,28.47
2019-04-16T21:13:05.855Z,28.70
2019-04-16T21:15:35.189Z,31.17
2019-04-16T21:18:04.501Z,29.53
2019-04-16T21:20:34.790Z,28.43
2019-04-16T21:23:04.176Z,28.40
2019-04-16T21:25:33.531Z,28.27
2019-04-16T21:28:22.200Z,29.03
2019-04-16T21:30:53.169Z,28.13
2019-04-16T21:33:40.430Z,28.10
2019-04-16T21:36:27.584Z,26.43
2019-04-16T21:39:10.292Z,30.37
2019-04-16T21:41:41.258Z,31.00
2019-04-16T21:44:13.052Z,29.17
2019-04-16T21:46:42.596Z,29.13
2019-04-16T21:49:12.980Z,28.37
2019-04-16T21:52:00.420Z,26.50
2019-04-16T21:54:30.592Z,28.17
2019-04-16T21:57:00.747Z,29.13
2019-04-16T21:59:30.132Z,33.80
2019-04-16T22:02:01.890Z,28.87
2019-04-16T22:04:31.361Z,27.80
2019-04-16T22:07:00.684Z,29.40
2019-04-16T22:09:30.010Z,30.07
2019-04-16T22:11:59.352Z,30.63
2019-04-16T22:14:28.674Z,33.90
2019-04-16T22:16:59.943Z,30.77
2019-04-16T22:19:29.028Z,30.53
2019-04-16T22:21:59.347Z,27.67
2019-04-16T22:24:28.658Z,29.47
2019-04-16T22:26:57.974Z,30.17
2019-04-16T22:29:27.287Z,31.63
2019-04-16T22:31:58.136Z,27.63
2019-04-16T22:34:27.615Z,28.87
2019-04-16T22:36:56.949Z,26.07
2019-04-16T22:39:33.604Z,25.90
2019-04-16T22:42:10.535Z,29.60
2019-04-16T22:45:00.088Z,26.60
2019-04-16T22:47:31.061Z,27.93
2019-04-16T22:50:13.970Z,28.13
2019-04-16T22:52:31.405Z,30.23
2019-04-16T22:55:01.864Z,29.70
2019-04-16T22:57:31.869Z,29.57
2019-04-16T23:00:01.280Z,27.43
2019-04-16T23:02:32.219Z,31.50
2019-04-16T23:05:01.537Z,27.03
2019-04-16T23:07:30.876Z,30.80
2019-04-16T23:10:00.182Z,29.97
2019-04-16T23:12:29.513Z,29.63
2019-04-16T23:14:58.994Z,28.57
2019-04-16T23:17:28.321Z,27.20
2019-04-16T23:19:57.627Z,28.73
2019-04-16T23:22:27.013Z,31.03
2019-04-16T23:24:56.508Z,28.37
2019-04-16T23:27:25.826Z,28.77
2019-04-16T23:29:55.135Z,27.67
2019-04-16T23:32:27.630Z,29.23
2019-04-16T23:34:55.468Z,30.37
2019-04-16T23:37:24.792Z,29.10
2019-04-16T23:39:54.095Z,29.37
2019-04-16T23:42:23.430Z,28.30
2019-04-16T23:45:03.648Z,25.03
2019-04-16T23:47:52.708Z,26.40
2019-04-16T23:50:44.802Z,29.03
2019-04-16T23:53:08.976Z,26.10
2019-04-16T23:55:40.396Z,28.37
2019-04-16T23:58:11.364Z,28.87
